sensor_id;sensor_type;location;lat;lon;timestamp;temperature;humidity
5930;DHT22;2990;48.746;9.236;2023-02-01T00:01:09;2.60;44.80
5930;DHT22;2990;48.746;9.236;2023-02-01T00:03:40;2.60;50.00
5930;DHT22;2990;48.746;9.236;2023-02-01T00:06:06;2.60;59.10
5930;DHT22;2990;48.746;9.236;2023-02-01T00:08:35;2.60;73.80
5930;DHT22;2990;48.746;9.236;2023-02-01T00:11:05;2.60;82.10
5930;DHT22;2990;48.746;9.236;2023-02-01T00:13:37;2.50;77.00
5930;DHT22;2990;48.746;9.236;2023-02-01T00:16:11;2.50;96.40
5930;DHT22;2990;48.746;9.236;2023-02-01T00:18:42;2.50;98.50
5930;DHT22;2990;48.746;9.236;2023-02-01T00:21:18;2.70;99.90
5930;DHT22;2990;48.746;9.236;2023-02-01T00:23:46;2.60;99.90
5930;DHT22;2990;48.746;9.236;2023-02-01T00:26:36;2.60;99.90
5930;DHT22;2990;48.746;9.236;2023-02-01T00:29:05;2.50;95.10
5930;DHT22;2990;48.746;9.236;2023-02-01T00:31:31;2.60;90.20
5930;DHT22;2990;48.746;9.236;2023-02-01T00:34:00;2.50;73.40
5930;DHT22;2990;48.746;9.236;2023-02-01T00:36:25;2.50;79.80
5930;DHT22;2990;48.746;9.236;2023-02-01T00:38:54;2.50;82.70
5930;DHT22;2990;48.746;9.236;2023-02-01T00:41:25;2.50;81.90
5930;DHT22;2990;48.746;9.236;2023-02-01T00:43:54;2.50;80.90
5930;DHT22;2990;48.746;9.236;2023-02-01T00:46:20;2.60;57.20
5930;DHT22;2990;48.746;9.236;2023-02-01T00:48:47;2.50;63.60
5930;DHT22;2990;48.746;9.236;2023-02-01T00:51:18;2.60;57.00
5930;DHT22;2990;48.746;9.236;2023-02-01T00:53:53;2.60;59.40
5930;DHT22;2990;48.746;9.236;2023-02-01T00:56:19;2.60;44.10
5930;DHT22;2990;48.746;9.236;2023-02-01T00:58:56;2.60;49.60
5930;DHT22;2990;48.746;9.236;2023-02-01T01:01:31;2.60;43.40
5930;DHT22;2990;48.746;9.236;2023-02-01T01:04:02;2.60;43.20
5930;DHT22;2990;48.746;9.236;2023-02-01T01:06:34;2.50;41.30
5930;DHT22;2990;48.746;9.236;2023-02-01T01:09:04;2.60;40.00
5930;DHT22;2990;48.746;9.236;2023-02-01T01:11:33;2.60;33.20
5930;DHT22;2990;48.746;9.236;2023-02-01T01:13:59;2.50;36.00
5930;DHT22;2990;48.746;9.236;2023-02-01T01:16:27;2.60;37.30
5930;DHT22;2990;48.746;9.236;2023-02-01T01:18:58;2.60;32.80
5930;DHT22;2990;48.746;9.236;2023-02-01T01:21:32;2.60;31.50
5930;DHT22;2990;48.746;9.236;2023-02-01T01:23:58;2.50;23.10
5930;DHT22;2990;48.746;9.236;2023-02-01T01:26:26;2.60;22.20
5930;DHT22;2990;48.746;9.236;2023-02-01T01:28:56;2.60;20.00
5930;DHT22;2990;48.746;9.236;2023-02-01T01:31:27;2.60;22.60
5930;DHT22;2990;48.746;9.236;2023-02-01T01:33:56;2.60;18.30
5930;DHT22;2990;48.746;9.236;2023-02-01T01:36:22;2.60;12.10
5930;DHT22;2990;48.746;9.236;2023-02-01T01:38:58;2.60;14.10
5930;DHT22;2990;48.746;9.236;2023-02-01T01:41:28;2.60;21.80
5930;DHT22;2990;48.746;9.236;2023-02-01T01:44:04;2.60;22.60
5930;DHT22;2990;48.746;9.236;2023-02-01T01:46:37;2.60;18.90
5930;DHT22;2990;48.746;9.236;2023-02-01T01:49:09;2.60;21.80
5930;DHT22;2990;48.746;9.236;2023-02-01T01:51:43;2.60;21.70
5930;DHT22;2990;48.746;9.236;2023-02-01T01:54:31;2.60;17.40
5930;DHT22;2990;48.746;9.236;2023-02-01T01:57:06;2.60;15.00
5930;DHT22;2990;48.746;9.236;2023-02-01T01:59:41;2.70;7.70
5930;DHT22;2990;48.746;9.236;2023-02-01T02:02:15;2.70;1.00
5930;DHT22;2990;48.746;9.236;2023-02-01T02:04:44;2.60;1.00
5930;DHT22;2990;48.746;9.236;2023-02-01T02:07:16;2.70;1.00
5930;DHT22;2990;48.746;9.236;2023-02-01T02:09:46;2.70;1.00
5930;DHT22;2990;48.746;9.236;2023-02-01T02:12:12;2.70;1.00
5930;DHT22;2990;48.746;9.236;2023-02-01T02:14:40;2.70;1.00
5930;DHT22;2990;48.746;9.236;2023-02-01T02:17:30;2.70;1.00
5930;DHT22;2990;48.746;9.236;2023-02-01T02:25:46;2.70;1.00
5930;DHT22;2990;48.746;9.236;2023-02-01T02:33:56;2.70;1.00
5930;DHT22;2990;48.746;9.236;2023-02-01T02:41:55;2.70;1.00
5930;DHT22;2990;48.746;9.236;2023-02-01T02:44:55;2.70;2.40
5930;DHT22;2990;48.746;9.236;2023-02-01T02:51:03;2.70;8.90
5930;DHT22;2990;48.746;9.236;2023-02-01T02:56:37;2.70;11.00
5930;DHT22;2990;48.746;9.236;2023-02-01T02:59:24;2.80;6.30
5930;DHT22;2990;48.746;9.236;2023-02-01T03:02:10;2.80;10.50
5930;DHT22;2990;48.746;9.236;2023-02-01T03:04:55;2.80;39.00
5930;DHT22;2990;48.746;9.236;2023-02-01T03:08:03;2.80;51.20
5930;DHT22;2990;48.746;9.236;2023-02-01T03:13:44;2.70;99.90
5930;DHT22;2990;48.746;9.236;2023-02-01T03:18:58;2.70;99.90
5930;DHT22;2990;48.746;9.236;2023-02-01T03:21:45;2.70;99.90
5930;DHT22;2990;48.746;9.236;2023-02-01T03:32:47;2.70;99.90
5930;DHT22;2990;48.746;9.236;2023-02-01T03:35:36;2.70;99.90
5930;DHT22;2990;48.746;9.236;2023-02-01T03:43:32;2.70;99.90
5930;DHT22;2990;48.746;9.236;2023-02-01T03:46:05;2.70;99.90
5930;DHT22;2990;48.746;9.236;2023-02-01T03:48:32;2.70;99.90
5930;DHT22;2990;48.746;9.236;2023-02-01T03:51:03;2.80;99.90
5930;DHT22;2990;48.746;9.236;2023-02-01T03:53:33;2.70;99.90
5930;DHT22;2990;48.746;9.236;2023-02-01T03:56:02;2.70;99.90
5930;DHT22;2990;48.746;9.236;2023-02-01T03:58:28;2.70;99.90
5930;DHT22;2990;48.746;9.236;2023-02-01T04:00:58;2.70;99.90
5930;DHT22;2990;48.746;9.236;2023-02-01T04:03:27;2.80;99.90
5930;DHT22;2990;48.746;9.236;2023-02-01T04:05:53;2.80;99.90
5930;DHT22;2990;48.746;9.236;2023-02-01T04:08:22;2.80;99.90
5930;DHT22;2990;48.746;9.236;2023-02-01T04:10:50;2.80;99.90
5930;DHT22;2990;48.746;9.236;2023-02-01T04:13:22;2.80;99.90
5930;DHT22;2990;48.746;9.236;2023-02-01T04:15:47;2.80;99.90
5930;DHT22;2990;48.746;9.236;2023-02-01T04:18:15;2.80;99.90
5930;DHT22;2990;48.746;9.236;2023-02-01T04:20:45;2.80;99.90
5930;DHT22;2990;48.746;9.236;2023-02-01T04:23:10;2.80;99.90
5930;DHT22;2990;48.746;9.236;2023-02-01T04:25:41;2.80;99.90
5930;DHT22;2990;48.746;9.236;2023-02-01T04:28:09;2.80;99.90
5930;DHT22;2990;48.746;9.236;2023-02-01T04:30:41;2.80;99.90
5930;DHT22;2990;48.746;9.236;2023-02-01T04:33:09;2.80;99.90
5930;DHT22;2990;48.746;9.236;2023-02-01T04:35:39;2.90;99.90
5930;DHT22;2990;48.746;9.236;2023-02-01T04:38:05;2.80;99.90
5930;DHT22;2990;48.746;9.236;2023-02-01T04:40:32;2.80;99.90
5930;DHT22;2990;48.746;9.236;2023-02-01T04:43:04;2.90;99.90
5930;DHT22;2990;48.746;9.236;2023-02-01T04:45:30;2.90;99.90
5930;DHT22;2990;48.746;9.236;2023-02-01T04:47:56;2.90;91.50
5930;DHT22;2990;48.746;9.236;2023-02-01T04:50:26;2.90;76.00
5930;DHT22;2990;48.746;9.236;2023-02-01T04:52:52;3.00;71.80
5930;DHT22;2990;48.746;9.236;2023-02-01T04:55:23;2.90;70.10
5930;DHT22;2990;48.746;9.236;2023-02-01T04:57:49;2.90;61.30
5930;DHT22;2990;48.746;9.236;2023-02-01T05:00:15;2.90;54.80
5930;DHT22;2990;48.746;9.236;2023-02-01T05:02:47;2.90;48.40
5930;DHT22;2990;48.746;9.236;2023-02-01T05:05:15;3.00;45.50
5930;DHT22;2990;48.746;9.236;2023-02-01T05:07:40;3.00;37.80
5930;DHT22;2990;48.746;9.236;2023-02-01T05:10:06;2.90;24.00
5930;DHT22;2990;48.746;9.236;2023-02-01T05:12:32;2.90;29.00
5930;DHT22;2990;48.746;9.236;2023-02-01T05:15:24;2.90;23.50
5930;DHT22;2990;48.746;9.236;2023-02-01T05:17:50;3.00;20.40
5930;DHT22;2990;48.746;9.236;2023-02-01T05:20:15;3.00;4.60
5930;DHT22;2990;48.746;9.236;2023-02-01T05:22:41;3.00;6.80
5930;DHT22;2990;48.746;9.236;2023-02-01T05:25:08;3.00;2.50
5930;DHT22;2990;48.746;9.236;2023-02-01T05:27:39;3.00;8.30
5930;DHT22;2990;48.746;9.236;2023-02-01T05:30:06;2.90;5.10
5930;DHT22;2990;48.746;9.236;2023-02-01T05:32:32;3.00;1.00
5930;DHT22;2990;48.746;9.236;2023-02-01T05:35:01;3.00;5.60
5930;DHT22;2990;48.746;9.236;2023-02-01T05:37:32;3.00;1.00
5930;DHT22;2990;48.746;9.236;2023-02-01T05:39:57;3.00;1.00
5930;DHT22;2990;48.746;9.236;2023-02-01T05:42:23;3.00;1.00
5930;DHT22;2990;48.746;9.236;2023-02-01T05:44:58;3.20;1.00
5930;DHT22;2990;48.746;9.236;2023-02-01T05:47:29;3.10;1.00
5930;DHT22;2990;48.746;9.236;2023-02-01T05:49:54;3.00;1.00
5930;DHT22;2990;48.746;9.236;2023-02-01T05:52:23;3.00;1.00
5930;DHT22;2990;48.746;9.236;2023-02-01T05:54:48;3.00;1.00
5930;DHT22;2990;48.746;9.236;2023-02-01T05:57:15;3.00;1.00
5930;DHT22;2990;48.746;9.236;2023-02-01T05:59:43;3.00;1.00
5930;DHT22;2990;48.746;9.236;2023-02-01T06:02:13;3.10;1.00
5930;DHT22;2990;48.746;9.236;2023-02-01T06:04:39;3.10;23.70
5930;DHT22;2990;48.746;9.236;2023-02-01T06:07:06;3.00;51.70
5930;DHT22;2990;48.746;9.236;2023-02-01T06:09:33;2.90;78.80
5930;DHT22;2990;48.746;9.236;2023-02-01T06:12:03;2.90;99.90
5930;DHT22;2990;48.746;9.236;2023-02-01T06:14:29;2.80;99.90
5930;DHT22;2990;48.746;9.236;2023-02-01T06:16:57;2.80;99.90
5930;DHT22;2990;48.746;9.236;2023-02-01T06:19:23;2.80;99.90
5930;DHT22;2990;48.746;9.236;2023-02-01T06:21:49;2.80;99.90
5930;DHT22;2990;48.746;9.236;2023-02-01T06:24:15;2.80;99.90
5930;DHT22;2990;48.746;9.236;2023-02-01T06:26:43;2.80;99.90
5930;DHT22;2990;48.746;9.236;2023-02-01T06:29:12;2.80;99.90
5930;DHT22;2990;48.746;9.236;2023-02-01T06:31:46;2.70;99.90
5930;DHT22;2990;48.746;9.236;2023-02-01T06:34:14;2.70;99.90
5930;DHT22;2990;48.746;9.236;2023-02-01T06:36:51;2.80;99.90
5930;DHT22;2990;48.746;9.236;2023-02-01T06:39:16;2.80;99.90
5930;DHT22;2990;48.746;9.236;2023-02-01T06:41:50;2.80;99.90
5930;DHT22;2990;48.746;9.236;2023-02-01T06:44:18;2.80;99.90
5930;DHT22;2990;48.746;9.236;2023-02-01T06:46:47;2.80;99.90
5930;DHT22;2990;48.746;9.236;2023-02-01T06:49:18;2.80;99.90
5930;DHT22;2990;48.746;9.236;2023-02-01T06:51:45;2.80;99.90
5930;DHT22;2990;48.746;9.236;2023-02-01T06:54:18;2.80;99.90
5930;DHT22;2990;48.746;9.236;2023-02-01T06:56:48;2.80;99.90
5930;DHT22;2990;48.746;9.236;2023-02-01T06:59:14;2.80;99.90
5930;DHT22;2990;48.746;9.236;2023-02-01T07:01:40;2.90;98.30
5930;DHT22;2990;48.746;9.236;2023-02-01T07:04:05;2.90;93.60
5930;DHT22;2990;48.746;9.236;2023-02-01T07:06:33;2.90;85.80
5930;DHT22;2990;48.746;9.236;2023-02-01T07:08:59;3.00;65.40
5930;DHT22;2990;48.746;9.236;2023-02-01T07:11:25;2.90;48.50
5930;DHT22;2990;48.746;9.236;2023-02-01T07:13:53;2.90;43.30
5930;DHT22;2990;48.746;9.236;2023-02-01T07:16:22;3.00;30.00
5930;DHT22;2990;48.746;9.236;2023-02-01T07:18:52;3.00;20.70
5930;DHT22;2990;48.746;9.236;2023-02-01T07:21:26;3.00;11.10
5930;DHT22;2990;48.746;9.236;2023-02-01T07:24:01;3.00;5.60
5930;DHT22;2990;48.746;9.236;2023-02-01T07:26:30;3.10;2.90
5930;DHT22;2990;48.746;9.236;2023-02-01T07:28:56;3.00;1.00
5930;DHT22;2990;48.746;9.236;2023-02-01T07:31:27;3.10;1.00
5930;DHT22;2990;48.746;9.236;2023-02-01T07:33:56;3.20;1.00
5930;DHT22;2990;48.746;9.236;2023-02-01T07:36:25;3.10;1.00
5930;DHT22;2990;48.746;9.236;2023-02-01T07:38:53;3.20;1.00
5930;DHT22;2990;48.746;9.236;2023-02-01T07:41:20;3.20;1.00
5930;DHT22;2990;48.746;9.236;2023-02-01T07:43:58;3.20;1.00
5930;DHT22;2990;48.746;9.236;2023-02-01T07:46:24;3.30;1.00
5930;DHT22;2990;48.746;9.236;2023-02-01T07:48:49;3.30;1.00
5930;DHT22;2990;48.746;9.236;2023-02-01T07:51:16;3.30;1.00
5930;DHT22;2990;48.746;9.236;2023-02-01T07:53:43;3.40;1.00
5930;DHT22;2990;48.746;9.236;2023-02-01T07:56:12;3.60;1.00
5930;DHT22;2990;48.746;9.236;2023-02-01T07:58:53;3.50;1.00
5930;DHT22;2990;48.746;9.236;2023-02-01T08:01:23;3.50;1.00
5930;DHT22;2990;48.746;9.236;2023-02-01T08:03:53;3.50;1.00
5930;DHT22;2990;48.746;9.236;2023-02-01T08:06:21;3.50;1.00
5930;DHT22;2990;48.746;9.236;2023-02-01T08:08:51;3.50;1.00
5930;DHT22;2990;48.746;9.236;2023-02-01T08:11:22;3.50;1.00
5930;DHT22;2990;48.746;9.236;2023-02-01T08:13:57;3.50;1.00
5930;DHT22;2990;48.746;9.236;2023-02-01T08:16:26;3.50;1.00
5930;DHT22;2990;48.746;9.236;2023-02-01T08:18:56;3.50;1.00
5930;DHT22;2990;48.746;9.236;2023-02-01T08:21:25;3.60;1.00
5930;DHT22;2990;48.746;9.236;2023-02-01T08:23:51;3.60;1.00
5930;DHT22;2990;48.746;9.236;2023-02-01T08:26:26;3.60;1.00
5930;DHT22;2990;48.746;9.236;2023-02-01T08:29:02;3.60;1.00
5930;DHT22;2990;48.746;9.236;2023-02-01T08:31:31;3.60;1.00
5930;DHT22;2990;48.746;9.236;2023-02-01T08:33:59;3.60;1.00
5930;DHT22;2990;48.746;9.236;2023-02-01T08:36:29;3.60;1.00
5930;DHT22;2990;48.746;9.236;2023-02-01T08:38:58;3.60;1.00
5930;DHT22;2990;48.746;9.236;2023-02-01T08:41:27;3.60;1.00
5930;DHT22;2990;48.746;9.236;2023-02-01T08:44:01;3.60;1.00
5930;DHT22;2990;48.746;9.236;2023-02-01T08:46:27;3.70;1.00
5930;DHT22;2990;48.746;9.236;2023-02-01T08:48:53;3.80;1.00
5930;DHT22;2990;48.746;9.236;2023-02-01T08:51:22;4.00;1.00
5930;DHT22;2990;48.746;9.236;2023-02-01T08:53:48;3.90;99.90
5930;DHT22;2990;48.746;9.236;2023-02-01T08:56:16;4.00;99.90
5930;DHT22;2990;48.746;9.236;2023-02-01T08:58:41;4.10;99.90
5930;DHT22;2990;48.746;9.236;2023-02-01T09:01:09;4.10;99.90
5930;DHT22;2990;48.746;9.236;2023-02-01T09:03:35;4.10;1.00
5930;DHT22;2990;48.746;9.236;2023-02-01T09:06:06;4.00;1.00
5930;DHT22;2990;48.746;9.236;2023-02-01T09:08:33;4.10;1.00
5930;DHT22;2990;48.746;9.236;2023-02-01T09:11:00;4.00;1.00
5930;DHT22;2990;48.746;9.236;2023-02-01T09:13:26;4.00;28.40
5930;DHT22;2990;48.746;9.236;2023-02-01T09:15:52;4.00;10.50
5930;DHT22;2990;48.746;9.236;2023-02-01T09:18:17;4.00;50.90
5930;DHT22;2990;48.746;9.236;2023-02-01T09:20:43;4.00;42.90
5930;DHT22;2990;48.746;9.236;2023-02-01T09:23:09;4.00;89.70
5930;DHT22;2990;48.746;9.236;2023-02-01T09:25:36;3.90;99.90
5930;DHT22;2990;48.746;9.236;2023-02-01T09:28:02;4.00;1.00
5930;DHT22;2990;48.746;9.236;2023-02-01T09:30:31;4.00;18.50
5930;DHT22;2990;48.746;9.236;2023-02-01T09:32:57;3.90;1.00
5930;DHT22;2990;48.746;9.236;2023-02-01T09:35:23;3.90;80.90
5930;DHT22;2990;48.746;9.236;2023-02-01T09:37:48;3.90;1.00
5930;DHT22;2990;48.746;9.236;2023-02-01T09:40:15;3.90;1.00
5930;DHT22;2990;48.746;9.236;2023-02-01T09:42:56;4.00;1.00
5930;DHT22;2990;48.746;9.236;2023-02-01T09:45:38;4.10;1.00
5930;DHT22;2990;48.746;9.236;2023-02-01T09:48:21;4.20;1.00
5930;DHT22;2990;48.746;9.236;2023-02-01T09:50:55;4.30;99.90
5930;DHT22;2990;48.746;9.236;2023-02-01T09:53:40;4.50;24.20
5930;DHT22;2990;48.746;9.236;2023-02-01T09:56:13;4.50;1.00
5930;DHT22;2990;48.746;9.236;2023-02-01T09:58:49;4.60;1.00
5930;DHT22;2990;48.746;9.236;2023-02-01T10:01:22;4.70;99.90
5930;DHT22;2990;48.746;9.236;2023-02-01T10:03:49;4.70;1.00
5930;DHT22;2990;48.746;9.236;2023-02-01T10:11:55;4.80;99.90
5930;DHT22;2990;48.746;9.236;2023-02-01T10:14:40;4.80;99.90
5930;DHT22;2990;48.746;9.236;2023-02-01T10:25:43;4.90;1.00
5930;DHT22;2990;48.746;9.236;2023-02-01T10:28:14;4.90;99.90
5930;DHT22;2990;48.746;9.236;2023-02-01T10:30:46;4.90;1.00
5930;DHT22;2990;48.746;9.236;2023-02-01T10:33:26;4.90;99.90
5930;DHT22;2990;48.746;9.236;2023-02-01T10:36:01;5.00;99.90
5930;DHT22;2990;48.746;9.236;2023-02-01T10:38:30;5.00;1.00
5930;DHT22;2990;48.746;9.236;2023-02-01T10:41:03;5.00;1.00
5930;DHT22;2990;48.746;9.236;2023-02-01T10:43:30;5.10;1.00
5930;DHT22;2990;48.746;9.236;2023-02-01T10:45:56;5.10;99.90
5930;DHT22;2990;48.746;9.236;2023-02-01T10:48:22;5.10;1.00
5930;DHT22;2990;48.746;9.236;2023-02-01T10:50:58;5.10;80.00
5930;DHT22;2990;48.746;9.236;2023-02-01T10:53:48;5.10;1.00
5930;DHT22;2990;48.746;9.236;2023-02-01T10:56:25;5.10;1.00
5930;DHT22;2990;48.746;9.236;2023-02-01T10:58:51;5.20;1.00
5930;DHT22;2990;48.746;9.236;2023-02-01T11:01:30;5.20;1.00
5930;DHT22;2990;48.746;9.236;2023-02-01T11:03:58;5.20;99.90
5930;DHT22;2990;48.746;9.236;2023-02-01T11:06:45;5.30;99.90
5930;DHT22;2990;48.746;9.236;2023-02-01T11:09:16;5.30;99.90
5930;DHT22;2990;48.746;9.236;2023-02-01T11:16:49;5.30;99.90
5930;DHT22;2990;48.746;9.236;2023-02-01T11:19:16;5.30;69.00
5930;DHT22;2990;48.746;9.236;2023-02-01T11:21:43;5.30;99.90
5930;DHT22;2990;48.746;9.236;2023-02-01T11:24:34;5.40;84.80
5930;DHT22;2990;48.746;9.236;2023-02-01T11:27:03;5.40;97.30
5930;DHT22;2990;48.746;9.236;2023-02-01T11:29:36;5.30;1.00
5930;DHT22;2990;48.746;9.236;2023-02-01T11:32:03;5.30;1.00
5930;DHT22;2990;48.746;9.236;2023-02-01T11:34:37;5.30;1.00
5930;DHT22;2990;48.746;9.236;2023-02-01T11:37:04;5.20;1.00
5930;DHT22;2990;48.746;9.236;2023-02-01T11:39:33;5.20;1.00
5930;DHT22;2990;48.746;9.236;2023-02-01T11:42:11;5.30;1.00
5930;DHT22;2990;48.746;9.236;2023-02-01T11:44:42;5.40;1.00
5930;DHT22;2990;48.746;9.236;2023-02-01T11:47:28;5.40;1.00
5930;DHT22;2990;48.746;9.236;2023-02-01T11:49:57;5.50;1.00
5930;DHT22;2990;48.746;9.236;2023-02-01T11:52:34;5.60;1.00
5930;DHT22;2990;48.746;9.236;2023-02-01T11:57:59;5.60;1.00
5930;DHT22;2990;48.746;9.236;2023-02-01T12:08:36;6.10;1.00
5930;DHT22;2990;48.746;9.236;2023-02-01T12:11:22;6.00;1.00
5930;DHT22;2990;48.746;9.236;2023-02-01T12:16:32;5.70;1.00
5930;DHT22;2990;48.746;9.236;2023-02-01T12:19:15;5.60;1.00
5930;DHT22;2990;48.746;9.236;2023-02-01T12:21:50;5.50;1.00
5930;DHT22;2990;48.746;9.236;2023-02-01T12:26:52;5.40;1.00
5930;DHT22;2990;48.746;9.236;2023-02-01T12:34:56;5.40;1.00
5930;DHT22;2990;48.746;9.236;2023-02-01T12:37:47;5.30;1.00
5930;DHT22;2990;48.746;9.236;2023-02-01T12:45:59;5.20;1.00
5930;DHT22;2990;48.746;9.236;2023-02-01T12:51:12;5.10;1.00
5930;DHT22;2990;48.746;9.236;2023-02-01T12:53:52;5.10;1.00
5930;DHT22;2990;48.746;9.236;2023-02-01T12:56:26;5.10;1.00
5930;DHT22;2990;48.746;9.236;2023-02-01T12:58:58;5.10;1.00
5930;DHT22;2990;48.746;9.236;2023-02-01T13:01:46;5.10;1.00
5930;DHT22;2990;48.746;9.236;2023-02-01T13:04:23;5.10;1.00
5930;DHT22;2990;48.746;9.236;2023-02-01T13:07:14;5.00;1.00
5930;DHT22;2990;48.746;9.236;2023-02-01T13:09:51;4.90;1.00
5930;DHT22;2990;48.746;9.236;2023-02-01T13:12:37;4.90;1.00
5930;DHT22;2990;48.746;9.236;2023-02-01T13:15:16;4.90;1.00
5930;DHT22;2990;48.746;9.236;2023-02-01T13:17:43;4.90;1.00
5930;DHT22;2990;48.746;9.236;2023-02-01T13:20:30;4.90;1.00
5930;DHT22;2990;48.746;9.236;2023-02-01T13:23:05;4.90;1.00
5930;DHT22;2990;48.746;9.236;2023-02-01T13:25:40;4.90;1.00
5930;DHT22;2990;48.746;9.236;2023-02-01T13:28:16;4.90;1.00
5930;DHT22;2990;48.746;9.236;2023-02-01T13:34:16;4.90;1.00
5930;DHT22;2990;48.746;9.236;2023-02-01T13:42:53;5.00;1.00
5930;DHT22;2990;48.746;9.236;2023-02-01T13:45:26;5.00;1.00
5930;DHT22;2990;48.746;9.236;2023-02-01T13:47:55;5.00;1.00
5930;DHT22;2990;48.746;9.236;2023-02-01T13:50:25;5.00;1.00
5930;DHT22;2990;48.746;9.236;2023-02-01T13:53:00;4.90;1.00
5930;DHT22;2990;48.746;9.236;2023-02-01T13:55:34;4.90;1.00
5930;DHT22;2990;48.746;9.236;2023-02-01T14:03:48;4.90;1.00
5930;DHT22;2990;48.746;9.236;2023-02-01T14:11:52;4.80;99.90
5930;DHT22;2990;48.746;9.236;2023-02-01T14:19:24;4.80;64.50
5930;DHT22;2990;48.746;9.236;2023-02-01T14:21:52;4.80;99.90
5930;DHT22;2990;48.746;9.236;2023-02-01T14:24:30;4.80;99.90
5930;DHT22;2990;48.746;9.236;2023-02-01T14:29:40;4.80;99.90
5930;DHT22;2990;48.746;9.236;2023-02-01T14:32:24;4.80;99.90
5930;DHT22;2990;48.746;9.236;2023-02-01T14:34:54;4.80;59.30
5930;DHT22;2990;48.746;9.236;2023-02-01T14:53:35;4.80;1.00
5930;DHT22;2990;48.746;9.236;2023-02-01T15:12:48;4.80;12.60
5930;DHT22;2990;48.746;9.236;2023-02-01T15:15:44;4.80;1.00
5930;DHT22;2990;48.746;9.236;2023-02-01T15:18:16;4.80;1.00
5930;DHT22;2990;48.746;9.236;2023-02-01T15:24:40;4.70;25.20
5930;DHT22;2990;48.746;9.236;2023-02-01T15:27:26;4.80;22.70
5930;DHT22;2990;48.746;9.236;2023-02-01T15:30:18;4.80;83.50
5930;DHT22;2990;48.746;9.236;2023-02-01T15:32:47;4.80;99.90
5930;DHT22;2990;48.746;9.236;2023-02-01T15:35:36;4.80;99.90
5930;DHT22;2990;48.746;9.236;2023-02-01T15:38:33;4.80;99.90
5930;DHT22;2990;48.746;9.236;2023-02-01T15:46:22;4.70;1.00
5930;DHT22;2990;48.746;9.236;2023-02-01T15:48:54;4.60;1.00
5930;DHT22;2990;48.746;9.236;2023-02-01T15:51:25;4.70;99.90
5930;DHT22;2990;48.746;9.236;2023-02-01T15:56:40;4.70;99.90
5930;DHT22;2990;48.746;9.236;2023-02-01T15:59:17;4.60;99.90
5930;DHT22;2990;48.746;9.236;2023-02-01T16:01:52;4.70;99.90
5930;DHT22;2990;48.746;9.236;2023-02-01T16:04:26;4.70;26.40
5930;DHT22;2990;48.746;9.236;2023-02-01T16:07:03;4.70;41.10
5930;DHT22;2990;48.746;9.236;2023-02-01T16:09:56;4.70;13.60
5930;DHT22;2990;48.746;9.236;2023-02-01T16:15:04;4.70;1.00
5930;DHT22;2990;48.746;9.236;2023-02-01T16:17:33;4.70;1.00
5930;DHT22;2990;48.746;9.236;2023-02-01T16:19:58;4.70;1.00
5930;DHT22;2990;48.746;9.236;2023-02-01T16:22:27;4.60;1.00
5930;DHT22;2990;48.746;9.236;2023-02-01T16:24:52;4.70;1.00
5930;DHT22;2990;48.746;9.236;2023-02-01T16:27:21;4.70;1.00
5930;DHT22;2990;48.746;9.236;2023-02-01T16:29:48;4.70;1.00
5930;DHT22;2990;48.746;9.236;2023-02-01T16:32:20;4.70;1.00
5930;DHT22;2990;48.746;9.236;2023-02-01T16:34:47;4.80;1.00
5930;DHT22;2990;48.746;9.236;2023-02-01T16:37:16;4.70;1.00
5930;DHT22;2990;48.746;9.236;2023-02-01T16:39:44;4.70;1.00
5930;DHT22;2990;48.746;9.236;2023-02-01T16:42:11;4.70;1.00
5930;DHT22;2990;48.746;9.236;2023-02-01T16:44:40;4.80;1.00
5930;DHT22;2990;48.746;9.236;2023-02-01T16:47:14;4.60;1.00
5930;DHT22;2990;48.746;9.236;2023-02-01T16:49:44;4.60;1.00
5930;DHT22;2990;48.746;9.236;2023-02-01T16:52:24;4.60;1.00
5930;DHT22;2990;48.746;9.236;2023-02-01T16:54:54;4.60;1.00
5930;DHT22;2990;48.746;9.236;2023-02-01T16:57:22;4.50;26.20
5930;DHT22;2990;48.746;9.236;2023-02-01T16:59:52;4.60;1.00
5930;DHT22;2990;48.746;9.236;2023-02-01T17:02:19;4.60;1.00
5930;DHT22;2990;48.746;9.236;2023-02-01T17:04:45;4.60;1.00
5930;DHT22;2990;48.746;9.236;2023-02-01T17:07:15;4.50;87.30
5930;DHT22;2990;48.746;9.236;2023-02-01T17:09:42;4.50;99.90
5930;DHT22;2990;48.746;9.236;2023-02-01T17:12:25;4.50;99.90
5930;DHT22;2990;48.746;9.236;2023-02-01T17:14:51;4.40;99.90
5930;DHT22;2990;48.746;9.236;2023-02-01T17:17:21;4.40;99.90
5930;DHT22;2990;48.746;9.236;2023-02-01T17:19:57;4.40;1.00
5930;DHT22;2990;48.746;9.236;2023-02-01T17:22:26;4.30;1.00
5930;DHT22;2990;48.746;9.236;2023-02-01T17:24:51;4.20;1.00
5930;DHT22;2990;48.746;9.236;2023-02-01T17:27:19;4.40;1.00
5930;DHT22;2990;48.746;9.236;2023-02-01T17:29:50;4.50;1.00
5930;DHT22;2990;48.746;9.236;2023-02-01T17:32:21;4.40;99.90
5930;DHT22;2990;48.746;9.236;2023-02-01T17:35:20;4.30;1.00
5930;DHT22;2990;48.746;9.236;2023-02-01T17:37:47;4.40;99.90
5930;DHT22;2990;48.746;9.236;2023-02-01T17:40:19;4.40;1.00
5930;DHT22;2990;48.746;9.236;2023-02-01T17:42:45;4.40;1.00
5930;DHT22;2990;48.746;9.236;2023-02-01T17:45:37;4.40;1.00
5930;DHT22;2990;48.746;9.236;2023-02-01T17:48:14;4.40;1.00
5930;DHT22;2990;48.746;9.236;2023-02-01T17:50:39;4.40;1.00
5930;DHT22;2990;48.746;9.236;2023-02-01T17:53:10;4.40;1.00
5930;DHT22;2990;48.746;9.236;2023-02-01T17:55:57;4.30;1.00
5930;DHT22;2990;48.746;9.236;2023-02-01T17:58:26;4.30;1.00
5930;DHT22;2990;48.746;9.236;2023-02-01T18:00:54;4.30;1.00
5930;DHT22;2990;48.746;9.236;2023-02-01T18:03:24;4.30;1.00
5930;DHT22;2990;48.746;9.236;2023-02-01T18:05:55;4.30;1.00
5930;DHT22;2990;48.746;9.236;2023-02-01T18:08:23;4.20;1.00
5930;DHT22;2990;48.746;9.236;2023-02-01T18:10:51;4.30;1.00
5930;DHT22;2990;48.746;9.236;2023-02-01T18:13:16;4.30;1.00
5930;DHT22;2990;48.746;9.236;2023-02-01T18:15:42;4.30;1.00
5930;DHT22;2990;48.746;9.236;2023-02-01T18:18:08;4.30;1.00
5930;DHT22;2990;48.746;9.236;2023-02-01T18:20:33;4.20;23.90
5930;DHT22;2990;48.746;9.236;2023-02-01T18:23:02;4.20;99.90
5930;DHT22;2990;48.746;9.236;2023-02-01T18:25:29;4.20;90.90
5930;DHT22;2990;48.746;9.236;2023-02-01T18:28:01;4.30;99.90
5930;DHT22;2990;48.746;9.236;2023-02-01T18:30:29;4.20;97.30
5930;DHT22;2990;48.746;9.236;2023-02-01T18:32:56;4.30;99.90
5930;DHT22;2990;48.746;9.236;2023-02-01T18:35:27;4.30;7.70
5930;DHT22;2990;48.746;9.236;2023-02-01T18:37:53;4.30;1.00
5930;DHT22;2990;48.746;9.236;2023-02-01T18:40:22;4.30;1.00
5930;DHT22;2990;48.746;9.236;2023-02-01T18:42:49;4.30;1.00
5930;DHT22;2990;48.746;9.236;2023-02-01T18:45:38;4.40;1.00
5930;DHT22;2990;48.746;9.236;2023-02-01T18:48:06;4.40;1.00
5930;DHT22;2990;48.746;9.236;2023-02-01T18:50:34;4.40;1.00
5930;DHT22;2990;48.746;9.236;2023-02-01T18:53:02;4.40;1.00
5930;DHT22;2990;48.746;9.236;2023-02-01T18:55:29;4.40;1.00
5930;DHT22;2990;48.746;9.236;2023-02-01T18:58:00;4.40;1.00
5930;DHT22;2990;48.746;9.236;2023-02-01T19:00:26;4.40;1.00
5930;DHT22;2990;48.746;9.236;2023-02-01T19:02:53;4.50;99.90
5930;DHT22;2990;48.746;9.236;2023-02-01T19:05:18;4.50;99.90
5930;DHT22;2990;48.746;9.236;2023-02-01T19:07:45;4.50;99.90
5930;DHT22;2990;48.746;9.236;2023-02-01T19:10:14;4.50;99.90
5930;DHT22;2990;48.746;9.236;2023-02-01T19:12:40;4.50;99.90
5930;DHT22;2990;48.746;9.236;2023-02-01T19:15:08;4.50;99.90
5930;DHT22;2990;48.746;9.236;2023-02-01T19:17:38;4.50;99.90
5930;DHT22;2990;48.746;9.236;2023-02-01T19:20:04;4.50;99.90
5930;DHT22;2990;48.746;9.236;2023-02-01T19:22:30;4.60;99.90
5930;DHT22;2990;48.746;9.236;2023-02-01T19:24:55;4.60;98.10
5930;DHT22;2990;48.746;9.236;2023-02-01T19:27:21;4.60;74.20
5930;DHT22;2990;48.746;9.236;2023-02-01T19:29:46;4.60;53.30
5930;DHT22;2990;48.746;9.236;2023-02-01T19:32:13;4.60;9.30
5930;DHT22;2990;48.746;9.236;2023-02-01T19:34:39;4.50;17.50
5930;DHT22;2990;48.746;9.236;2023-02-01T19:37:06;4.50;69.60
5930;DHT22;2990;48.746;9.236;2023-02-01T19:39:31;4.50;99.90
5930;DHT22;2990;48.746;9.236;2023-02-01T19:41:57;4.50;99.90